Time;durP1;ratioP1;P1;durP2;ratioP2;P2;SDS_P1;SDS_P2;PMS_P1;PMS_P2;Temp;Humidity;BMP_temperature;BMP_pressure;BME280_temperature;BME280_humidity;BME280_pressure;Samples;Min_cycle;Max_cycle;Signal;HPM_P1;HPM_P2
2023/02/02 00:01:47;;;;;;;11.83;2.20;;;;;;;4.48;79.82;100700.41;5082140;28;20196;-73
2023/02/02 00:04:16;;;;;;;14.93;2.20;;;;;;;4.49;79.83;100707.41;5082372;28;20206;-73
2023/02/02 00:06:43;;;;;;;9.80;2.43;;;;;;;4.49;79.93;100703.91;5081132;28;20709;-73
2023/02/02 00:09:11;;;;;;;12.47;2.27;;;;;;;4.46;79.93;100712.81;5084153;28;20235;-73
2023/02/02 00:11:37;;;;;;;8.80;2.30;;;;;;;4.44;79.94;100706.75;5084621;28;20215;-73
2023/02/02 00:14:04;;;;;;;6.43;1.67;;;;;;;4.45;79.44;100704.97;5082002;28;20471;-73
2023/02/02 00:16:36;;;;;;;9.07;2.10;;;;;;;4.45;79.81;100697.91;5082175;28;20235;-73
2023/02/02 00:19:06;;;;;;;7.67;1.90;;;;;;;4.46;79.86;100709.31;5078957;28;20572;-73
2023/02/02 00:21:32;;;;;;;9.63;1.73;;;;;;;4.41;79.85;100704.22;5082223;28;20228;-73
2023/02/02 00:23:59;;;;;;;14.13;3.00;;;;;;;4.40;79.75;100707.75;5083035;28;20199;-74
2023/02/02 00:26:25;;;;;;;10.80;2.20;;;;;;;4.41;79.27;100706.84;5083812;28;20227;-73
2023/02/02 00:28:52;;;;;;;11.17;2.07;;;;;;;4.41;79.47;100712.13;5082099;28;20208;-73
2023/02/02 00:31:19;;;;;;;8.70;1.87;;;;;;;4.41;79.67;100701.56;5082972;28;20204;-72
2023/02/02 00:33:46;;;;;;;8.00;1.50;;;;;;;4.44;79.58;100701.47;5085759;28;20228;-72
2023/02/02 00:36:13;;;;;;;8.77;1.80;;;;;;;4.44;80.05;100709.38;5081625;28;20232;-73
2023/02/02 00:38:40;;;;;;;12.10;2.43;;;;;;;4.44;79.60;100719.94;5084013;28;20682;-73
2023/02/02 00:41:07;;;;;;;8.90;1.83;;;;;;;4.43;80.33;100718.22;5073750;28;20207;-72
2023/02/02 00:43:33;;;;;;;19.60;3.33;;;;;;;4.43;80.50;100718.22;5084222;28;20287;-72
2023/02/02 00:45:59;;;;;;;10.93;2.47;;;;;;;4.44;79.90;100726.97;5074494;28;20235;-72
2023/02/02 00:48:25;;;;;;;10.03;2.20;;;;;;;4.45;79.97;100736.59;5085221;28;20204;-73
2023/02/02 00:50:52;;;;;;;11.37;2.60;;;;;;;4.45;80.16;100747.16;5085028;28;20208;-73
2023/02/02 00:53:20;;;;;;;12.90;2.00;;;;;;;4.46;79.90;100731.28;5084648;28;20223;-72
2023/02/02 00:58:25;;;;;;;11.43;2.50;;;;;;;4.47;80.09;100746.19;5124287;22;20287;-81
2023/02/02 01:00:51;;;;;;;10.27;1.80;;;;;;;4.49;80.51;100735.56;5086328;28;20208;-80
2023/02/02 01:03:18;;;;;;;11.00;3.20;;;;;;;4.49;80.09;100743.47;5092623;28;20614;-80
2023/02/02 01:05:44;;;;;;;9.70;2.30;;;;;;;4.52;80.06;100743.34;5087929;28;20261;-79
2023/02/02 01:08:11;;;;;;;11.60;2.57;;;;;;;4.53;80.17;100739.81;5095563;28;20223;-80
2023/02/02 01:10:39;;;;;;;9.10;1.80;;;;;;;4.53;80.34;100756.50;5096611;28;20207;-80
2023/02/02 01:13:05;;;;;;;9.70;2.47;;;;;;;4.52;80.24;100753.91;5089591;28;20224;-80
2023/02/02 01:15:31;;;;;;;12.97;2.30;;;;;;;4.50;80.22;100756.59;5091917;28;20215;-80
2023/02/02 01:17:58;;;;;;;10.53;2.47;;;;;;;4.53;79.97;100753.00;5091552;28;20231;-80
2023/02/02 01:20:24;;;;;;;11.67;2.30;;;;;;;4.51;79.90;100768.00;5094816;28;20212;-80
2023/02/02 01:22:51;;;;;;;13.43;2.50;;;;;;;4.48;79.41;100768.97;5093200;28;20204;-80
2023/02/02 01:25:18;;;;;;;8.30;1.80;;;;;;;4.50;79.10;100761.00;5095791;28;20228;-80
2023/02/02 01:27:45;;;;;;;11.13;2.63;;;;;;;4.47;79.18;100755.88;5095039;28;20236;-79
2023/02/02 01:30:12;;;;;;;10.90;2.33;;;;;;;4.45;78.97;100769.13;5092515;28;20585;-81
2023/02/02 01:32:42;;;;;;;11.80;1.90;;;;;;;4.46;78.44;100762.94;5085093;28;20219;-80
2023/02/02 01:35:10;;;;;;;9.10;2.13;;;;;;;4.45;78.73;100776.16;5091310;28;20216;-80
2023/02/02 01:37:36;;;;;;;7.30;1.60;;;;;;;4.48;78.36;100757.56;5085839;28;20235;-80
2023/02/02 01:40:03;;;;;;;11.37;2.37;;;;;;;4.47;78.51;100772.56;5090905;28;20192;-80
2023/02/02 01:42:30;;;;;;;9.73;2.27;;;;;;;4.48;77.90;100783.94;5094422;28;20551;-80
2023/02/02 01:45:14;;;;;;;8.40;1.63;;;;;;;4.47;78.08;100780.47;5091709;28;20208;-80
2023/02/02 01:47:45;;;;;;;11.77;2.13;;;;;;;4.47;78.73;100784.88;5091004;28;21546;-80
2023/02/02 01:50:14;;;;;;;12.37;2.00;;;;;;;4.47;78.57;100785.75;5091654;28;20257;-79
2023/02/02 01:52:45;;;;;;;8.83;1.90;;;;;;;4.50;78.29;100792.66;5084429;28;20212;-80
2023/02/02 01:55:14;;;;;;;10.37;2.07;;;;;;;4.51;78.05;100789.13;5088733;28;20224;-79
2023/02/02 01:57:44;;;;;;;9.93;1.60;;;;;;;4.52;78.37;100781.16;5093159;28;20733;-79
2023/02/02 02:00:15;;;;;;;12.43;1.77;;;;;;;4.52;77.77;100775.88;5091968;28;20201;-79
2023/02/02 02:02:45;;;;;;;11.47;2.00;;;;;;;4.51;77.97;100773.28;5089763;28;20208;-81
2023/02/02 02:05:15;;;;;;;10.40;2.17;;;;;;;4.51;77.71;100792.59;5089179;28;20196;-80
2023/02/02 02:07:44;;;;;;;9.53;2.30;;;;;;;4.54;77.72;100796.91;5093007;28;20228;-81
2023/02/02 02:10:10;;;;;;;10.00;1.63;;;;;;;4.55;77.82;100788.09;5091927;28;20208;-80
2023/02/02 02:12:37;;;;;;;10.57;2.03;;;;;;;4.59;78.15;100796.75;5091251;28;20208;-81
2023/02/02 02:18:00;;;;;;;11.10;1.90;;;;;;;4.57;78.05;100804.72;5087752;28;20595;-80
2023/02/02 02:27:51;;;;;;;12.50;2.27;;;;;;;4.56;78.28;100795.09;5089049;28;20204;-80
2023/02/02 02:30:35;;;;;;;10.37;1.93;;;;;;;4.56;78.32;100813.56;5089445;28;20204;-80
2023/02/02 02:33:06;;;;;;;8.83;1.90;;;;;;;4.59;78.88;100809.94;5089184;28;20211;-80
2023/02/02 02:35:40;;;;;;;12.07;2.30;;;;;;;4.58;78.34;100806.44;5092052;28;20228;-80
2023/02/02 02:38:14;;;;;;;10.67;2.50;;;;;;;4.58;78.38;100808.22;5090188;28;20871;-81
2023/02/02 02:40:48;;;;;;;11.83;2.00;;;;;;;4.59;78.60;100831.06;5089671;28;20196;-80
2023/02/02 02:43:20;;;;;;;12.83;2.77;;;;;;;4.58;78.40;100818.78;5088489;28;20196;-81
2023/02/02 02:45:46;;;;;;;14.07;2.30;;;;;;;4.57;78.16;100828.47;5088137;28;20208;-80
2023/02/02 02:48:14;;;;;;;12.00;2.90;;;;;;;4.56;78.27;100820.59;5087998;28;20596;-81
2023/02/02 02:50:41;;;;;;;11.40;2.50;;;;;;;4.54;78.24;100828.56;5092241;28;20841;-80
2023/02/02 02:53:11;;;;;;;8.87;1.70;;;;;;;4.56;77.92;100834.66;5083473;28;20472;-80
2023/02/02 02:55:47;;;;;;;10.33;1.93;;;;;;;4.56;78.03;100829.38;5083948;28;20248;-80
2023/02/02 02:58:18;;;;;;;8.60;2.37;;;;;;;4.54;77.80;100839.13;5085818;28;20236;-80
2023/02/02 03:00:53;;;;;;;11.40;1.77;;;;;;;4.50;78.30;100843.63;5090875;28;20211;-80
2023/02/02 03:03:33;;;;;;;8.33;1.73;;;;;;;4.50;78.32;100845.41;5091230;28;20636;-81
2023/02/02 03:06:08;;;;;;;10.37;1.63;;;;;;;4.49;78.30;100830.50;5086512;28;20208;-80
2023/02/02 03:08:39;;;;;;;12.07;1.80;;;;;;;4.48;78.34;100834.91;5083096;28;20230;-80
2023/02/02 03:11:08;;;;;;;7.07;1.97;;;;;;;4.46;78.46;100838.53;5087306;28;20205;-79
2023/02/02 03:13:35;;;;;;;8.63;2.70;;;;;;;4.44;78.56;100835.97;5091409;28;20786;-79
2023/02/02 03:16:01;;;;;;;10.47;2.07;;;;;;;4.47;79.10;100840.28;5088793;28;20196;-80
2023/02/02 03:18:31;;;;;;;11.10;2.00;;;;;;;4.48;78.83;100848.09;5091112;28;20263;-81
2023/02/02 03:20:57;;;;;;;13.90;2.13;;;;;;;4.46;79.09;100842.03;5088618;28;20213;-80
2023/02/02 03:23:24;;;;;;;8.60;1.77;;;;;;;4.45;79.09;100842.97;5093522;28;20212;-81
2023/02/02 03:25:51;;;;;;;10.40;2.10;;;;;;;4.46;78.88;100844.69;5086069;28;20208;-81
2023/02/02 03:28:18;;;;;;;14.30;2.73;;;;;;;4.46;78.82;100849.97;5083793;28;20232;-80
2023/02/02 03:30:47;;;;;;;14.80;2.23;;;;;;;4.45;79.15;100845.59;5089463;28;20215;-80
2023/02/02 03:33:14;;;;;;;13.93;2.23;;;;;;;4.43;79.28;100854.47;5092570;28;20546;-81
2023/02/02 03:35:42;;;;;;;8.93;1.83;;;;;;;4.45;79.35;100855.28;5085832;28;20224;-81
2023/02/02 03:38:08;;;;;;;9.70;1.87;;;;;;;4.42;80.08;100853.59;5084850;28;21456;-80
2023/02/02 03:40:35;;;;;;;12.40;2.60;;;;;;;4.45;79.65;100857.91;5087059;28;20223;-82
2023/02/02 03:43:02;;;;;;;13.43;2.47;;;;;;;4.46;80.09;100860.50;5090574;28;20201;-80
2023/02/02 03:45:29;;;;;;;11.33;2.60;;;;;;;4.47;80.15;100866.66;5092967;28;20227;-80
2023/02/02 03:47:56;;;;;;;6.63;1.77;;;;;;;4.48;80.29;100870.97;5093082;28;20227;-80
2023/02/02 03:50:24;;;;;;;13.90;2.23;;;;;;;4.49;80.54;100875.34;5089779;28;20200;-81
2023/02/02 03:52:51;;;;;;;6.27;1.60;;;;;;;4.49;80.61;100870.06;5092470;28;20838;-80
2023/02/02 03:55:18;;;;;;;10.87;2.97;;;;;;;4.48;80.82;100882.38;5087447;28;20233;-80
2023/02/02 03:57:44;;;;;;;14.63;1.87;;;;;;;4.48;80.57;100876.25;5087980;28;20338;-79
2023/02/02 04:00:12;;;;;;;15.37;2.20;;;;;;;4.48;80.86;100877.09;5089706;28;20207;-80
2023/02/02 04:02:38;;;;;;;11.73;2.17;;;;;;;4.47;80.87;100878.06;5086729;28;20226;-80
2023/02/02 04:05:05;;;;;;;17.17;2.63;;;;;;;4.45;81.02;100879.00;5085301;28;20743;-80
2023/02/02 04:07:32;;;;;;;28.73;4.00;;;;;;;4.45;80.39;100879.00;5091298;28;20215;-80
2023/02/02 04:10:00;;;;;;;9.77;1.63;;;;;;;4.45;80.95;100879.00;5088065;28;20567;-80
2023/02/02 04:12:26;;;;;;;11.07;2.13;;;;;;;4.45;80.94;100879.00;5082739;28;20201;-80
2023/02/02 04:14:53;;;;;;;9.00;1.70;;;;;;;4.44;81.31;100878.16;5086301;28;20231;-80
2023/02/02 04:17:19;;;;;;;16.60;2.47;;;;;;;4.42;82.08;100889.66;5087111;28;20196;-80
2023/02/02 04:19:46;;;;;;;12.07;2.70;;;;;;;4.43;82.63;100880.84;5085445;28;20200;-80
2023/02/02 04:22:12;;;;;;;10.50;2.50;;;;;;;4.46;82.74;100891.28;5088504;28;20201;-80
2023/02/02 04:24:39;;;;;;;13.27;2.67;;;;;;;4.48;82.79;100895.56;5082664;28;20204;-80
2023/02/02 04:27:06;;;;;;;20.57;2.83;;;;;;;4.47;83.98;100891.25;5086372;28;20200;-80
2023/02/02 04:29:33;;;;;;;15.67;2.20;;;;;;;4.48;83.75;100913.16;5091652;28;20235;-80
2023/02/02 04:31:59;;;;;;;18.83;2.27;;;;;;;4.49;84.29;100907.84;5088089;28;20200;-80
2023/02/02 04:34:26;;;;;;;16.63;3.37;;;;;;;4.51;84.40;100894.59;5086680;28;20238;-80
2023/02/02 04:36:53;;;;;;;14.27;2.73;;;;;;;4.51;85.42;100905.16;5087676;28;20204;-80
2023/02/02 04:39:19;;;;;;;15.33;3.73;;;;;;;4.49;85.24;100913.13;5091735;28;20224;-80
2023/02/02 04:41:46;;;;;;;13.67;1.80;;;;;;;4.53;84.75;100913.88;5088622;28;20200;-81
2023/02/02 04:44:15;;;;;;;22.53;3.37;;;;;;;4.53;85.21;100919.16;5089531;28;20196;-80
2023/02/02 04:46:42;;;;;;;14.87;2.87;;;;;;;4.55;85.13;100919.97;5087799;28;20215;-80
2023/02/02 04:49:09;;;;;;;16.27;3.03;;;;;;;4.54;85.06;100913.84;5091207;28;20228;-80
2023/02/02 04:51:35;;;;;;;12.20;2.50;;;;;;;4.55;85.17;100914.69;5085718;28;20230;-81
2023/02/02 04:54:02;;;;;;;16.33;2.43;;;;;;;4.54;85.01;100905.06;5088575;28;20204;-80
2023/02/02 04:56:29;;;;;;;13.90;2.67;;;;;;;4.51;85.17;100906.03;5088926;28;20211;-80
2023/02/02 04:58:55;;;;;;;13.37;2.27;;;;;;;4.50;85.66;100904.28;5089531;28;20232;-80
2023/02/02 05:01:23;;;;;;;13.27;2.23;;;;;;;4.50;85.71;100921.91;5089695;28;20232;-80
2023/02/02 05:03:50;;;;;;;7.10;2.23;;;;;;;4.46;85.44;100926.44;5086190;28;20208;-80
2023/02/02 05:06:18;;;;;;;9.70;2.10;;;;;;;4.45;85.64;100921.22;5086466;28;20234;-80
2023/02/02 05:08:45;;;;;;;12.33;2.30;;;;;;;4.43;85.93;100928.31;5087543;28;20784;-80
2023/02/02 05:11:13;;;;;;;13.53;2.27;;;;;;;4.45;85.94;100929.13;5089402;28;20653;-80
2023/02/02 05:13:40;;;;;;;10.33;2.30;;;;;;;4.42;85.72;100927.44;5081767;28;20649;-80
2023/02/02 05:16:07;;;;;;;17.50;3.40;;;;;;;4.41;85.73;100924.84;5077964;28;20744;-80
2023/02/02 05:18:35;;;;;;;12.37;2.83;;;;;;;4.41;85.73;100931.00;5088667;28;20232;-80
2023/02/02 05:21:02;;;;;;;9.07;2.33;;;;;;;4.38;86.18;100936.38;5087519;28;20203;-80
2023/02/02 05:23:29;;;;;;;14.73;3.63;;;;;;;4.35;86.61;100930.31;5083686;28;20208;-80
2023/02/02 05:25:56;;;;;;;18.57;2.90;;;;;;;4.35;86.38;100933.81;5089671;28;20200;-80
2023/02/02 05:28:23;;;;;;;13.00;2.23;;;;;;;4.36;86.17;100940.81;5090371;28;20306;-81
2023/02/02 05:30:50;;;;;;;15.63;2.90;;;;;;;4.36;86.39;100943.47;5089345;28;20196;-81
2023/02/02 05:33:18;;;;;;;12.47;2.53;;;;;;;4.36;86.74;100942.59;5081780;28;20215;-80
2023/02/02 05:35:46;;;;;;;10.83;2.47;;;;;;;4.35;86.68;100939.09;5080253;28;20228;-80
2023/02/02 05:38:12;;;;;;;15.23;2.53;;;;;;;4.35;86.27;100938.25;5082178;28;20224;-80
2023/02/02 05:40:39;;;;;;;12.93;2.40;;;;;;;4.36;86.39;100945.25;5085600;28;20200;-79
2023/02/02 05:43:05;;;;;;;16.90;3.17;;;;;;;4.37;86.67;100953.09;5088469;28;20295;-80
2023/02/02 05:45:32;;;;;;;13.93;2.30;;;;;;;4.36;86.32;100948.75;5085669;28;20208;-80
2023/02/02 05:47:59;;;;;;;17.43;3.60;;;;;;;4.35;86.56;100957.56;5088139;28;20309;-79
2023/02/02 05:50:32;;;;;;;15.33;2.60;;;;;;;4.36;86.85;100954.00;5087365;28;20200;-81
2023/02/02 05:53:00;;;;;;;9.97;2.40;;;;;;;4.34;86.68;100960.25;5088116;28;20668;-80
2023/02/02 05:55:26;;;;;;;15.03;2.53;;;;;;;4.34;87.07;100957.59;5087964;28;20732;-79
2023/02/02 05:57:53;;;;;;;13.13;2.63;;;;;;;4.34;86.99;100965.50;5089015;28;20226;-80
2023/02/02 06:00:20;;;;;;;16.90;2.63;;;;;;;4.34;86.87;100970.78;5085060;28;20223;-80
2023/02/02 06:02:46;;;;;;;16.97;3.07;;;;;;;4.30;86.84;100974.47;5084848;28;20220;-81
2023/02/02 06:05:13;;;;;;;16.80;2.60;;;;;;;4.31;86.87;100976.16;5085501;28;20212;-81
2023/02/02 06:07:39;;;;;;;12.83;2.00;;;;;;;4.34;86.93;100981.34;5083769;28;21031;-80
2023/02/02 06:10:08;;;;;;;12.70;2.00;;;;;;;4.34;87.04;100983.97;5089092;28;20192;-81
2023/02/02 06:12:34;;;;;;;10.83;2.27;;;;;;;4.33;87.02;100982.25;5086144;28;20204;-80
2023/02/02 06:15:01;;;;;;;12.07;2.37;;;;;;;4.32;86.94;100988.44;5086235;28;20239;-80
2023/02/02 06:17:27;;;;;;;12.80;2.20;;;;;;;4.31;87.38;100990.19;5087681;28;20212;-80
2023/02/02 06:19:54;;;;;;;17.77;2.57;;;;;;;4.32;87.55;100998.97;5083174;28;20212;-80
2023/02/02 06:22:20;;;;;;;12.30;3.23;;;;;;;4.30;87.45;100996.38;5087917;28;20208;-80
2023/02/02 06:24:47;;;;;;;15.30;2.80;;;;;;;4.30;87.41;101006.94;5085979;28;20224;-80
2023/02/02 06:27:14;;;;;;;15.43;2.37;;;;;;;4.29;87.42;101005.25;5090034;28;20215;-79
2023/02/02 06:29:41;;;;;;;14.50;3.20;;;;;;;4.29;87.38;101009.66;5091916;28;20602;-80
2023/02/02 06:32:07;;;;;;;15.73;3.00;;;;;;;4.26;87.80;101012.38;5096487;28;20208;-80
2023/02/02 06:34:34;;;;;;;17.17;2.90;;;;;;;4.25;87.75;101015.91;5093989;28;20196;-80
2023/02/02 06:37:00;;;;;;;7.73;2.13;;;;;;;4.26;87.95;101022.91;5093727;28;20208;-80
2023/02/02 06:39:27;;;;;;;15.07;2.30;;;;;;;4.26;87.63;101020.28;5093742;28;20231;-81
2023/02/02 06:41:53;;;;;;;12.90;2.60;;;;;;;4.26;88.05;101029.06;5085996;28;20205;-81
2023/02/02 06:44:21;;;;;;;13.03;2.47;;;;;;;4.26;87.99;101030.84;5090079;28;20215;-80
2023/02/02 06:46:47;;;;;;;14.10;3.10;;;;;;;4.25;88.45;101031.75;5093248;28;20204;-81
2023/02/02 06:49:16;;;;;;;13.70;2.20;;;;;;;4.27;88.76;101032.56;5091721;28;20704;-81
2023/02/02 06:51:45;;;;;;;15.27;2.63;;;;;;;4.28;88.04;101034.28;5091689;28;20204;-82
2023/02/02 06:54:12;;;;;;;14.60;3.17;;;;;;;4.30;88.46;101043.84;5088318;28;20684;-81
2023/02/02 06:56:38;;;;;;;20.87;3.30;;;;;;;4.31;88.20;101042.94;5100462;28;20232;-80
2023/02/02 06:59:05;;;;;;;18.17;2.83;;;;;;;4.31;88.44;101039.44;5092426;28;20235;-80
2023/02/02 07:01:32;;;;;;;14.07;3.00;;;;;;;4.31;88.54;101042.94;5094854;28;20680;-81
2023/02/02 07:03:59;;;;;;;16.73;2.20;;;;;;;4.33;88.74;101038.47;5096142;28;20284;-80
2023/02/02 07:06:27;;;;;;;14.00;2.70;;;;;;;4.33;88.79;101043.75;5095169;28;20200;-81
2023/02/02 07:08:55;;;;;;;19.33;3.13;;;;;;;4.34;88.76;101044.63;5095083;28;20236;-80
2023/02/02 07:11:22;;;;;;;18.60;3.00;;;;;;;4.34;88.90;101039.34;5094382;28;20218;-81
2023/02/02 07:13:49;;;;;;;13.73;2.80;;;;;;;4.36;88.78;101045.44;5094768;28;20212;-80
2023/02/02 07:16:18;;;;;;;9.67;2.40;;;;;;;4.38;88.65;101047.13;5094770;28;20227;-81
2023/02/02 07:18:47;;;;;;;15.20;2.63;;;;;;;4.42;89.17;101039.97;5093797;28;20224;-81
2023/02/02 07:21:17;;;;;;;11.00;2.40;;;;;;;4.43;89.14;101046.97;5091175;28;20739;-81
2023/02/02 07:23:44;;;;;;;18.40;3.20;;;;;;;4.45;89.67;101053.06;5093315;28;20202;-81
2023/02/02 07:26:12;;;;;;;18.17;3.50;;;;;;;4.48;89.04;101052.94;5094808;28;20197;-81
2023/02/02 07:28:39;;;;;;;10.90;2.63;;;;;;;4.49;89.69;101054.69;5092382;28;20600;-81
2023/02/02 07:31:13;;;;;;;14.17;3.13;;;;;;;4.52;89.73;101067.78;5093704;28;20207;-80
2023/02/02 07:33:41;;;;;;;15.10;2.60;;;;;;;4.54;89.92;101058.03;5090036;28;20211;-80
2023/02/02 07:36:09;;;;;;;15.07;2.90;;;;;;;4.56;90.16;101061.50;5092464;28;20700;-80
2023/02/02 07:38:35;;;;;;;12.63;2.67;;;;;;;4.59;89.95;101068.44;5090270;28;20212;-81
2023/02/02 07:41:02;;;;;;;14.93;2.70;;;;;;;4.59;90.61;101066.69;5093909;28;20565;-80
2023/02/02 07:43:28;;;;;;;9.57;3.00;;;;;;;4.60;90.46;101065.78;5090902;28;20204;-80
2023/02/02 07:45:55;;;;;;;11.40;3.10;;;;;;;4.62;90.35;101071.88;5095762;28;20680;-80
2023/02/02 07:48:22;;;;;;;18.73;3.10;;;;;;;4.63;90.61;101078.00;5093389;28;20224;-80
2023/02/02 07:50:48;;;;;;;18.13;4.50;;;;;;;4.62;90.37;101069.22;5087937;28;20211;-80
2023/02/02 07:53:16;;;;;;;14.40;2.67;;;;;;;4.65;90.88;101076.19;5093889;28;20230;-81
2023/02/02 07:55:42;;;;;;;17.63;3.50;;;;;;;4.67;90.53;101074.31;5091653;28;20227;-80
2023/02/02 07:58:09;;;;;;;17.70;2.97;;;;;;;4.68;90.49;101074.28;5087459;28;20236;-80
2023/02/02 08:00:36;;;;;;;15.03;2.87;;;;;;;4.68;90.96;101083.97;5088057;28;20200;-81
2023/02/02 08:03:02;;;;;;;17.67;2.93;;;;;;;4.69;90.97;101083.06;5091719;28;20211;-81
2023/02/02 08:05:29;;;;;;;13.33;2.60;;;;;;;4.69;91.11;101083.94;5091304;28;20203;-81
2023/02/02 08:07:55;;;;;;;13.17;2.53;;;;;;;4.73;91.06;101097.88;5089398;28;20231;-81
2023/02/02 08:10:23;;;;;;;18.50;3.77;;;;;;;4.74;91.36;101089.94;5092932;28;20219;-80
2023/02/02 08:12:49;;;;;;;12.27;2.30;;;;;;;4.74;91.42;101089.94;5087932;28;20196;-80
2023/02/02 08:15:16;;;;;;;14.43;2.80;;;;;;;4.77;91.46;101095.09;5090346;28;20232;-81
2023/02/02 08:17:45;;;;;;;14.77;2.63;;;;;;;4.78;91.38;101102.13;5092685;28;20217;-81
2023/02/02 08:20:13;;;;;;;17.17;3.43;;;;;;;4.79;91.37;101106.47;5089219;28;20212;-80
2023/02/02 08:22:39;;;;;;;14.63;2.83;;;;;;;4.82;91.77;101106.38;5093016;28;20196;-80
2023/02/02 08:25:06;;;;;;;16.53;2.23;;;;;;;4.84;91.97;101112.44;5089800;28;20657;-81
2023/02/02 08:27:34;;;;;;;11.10;2.83;;;;;;;4.86;92.05;101115.03;5092922;28;20208;-81
2023/02/02 08:30:01;;;;;;;12.20;2.63;;;;;;;4.87;92.16;101122.03;5092888;28;20555;-81
2023/02/02 08:32:27;;;;;;;13.37;2.70;;;;;;;4.88;92.20;101121.13;5093839;28;20821;-80
2023/02/02 08:34:53;;;;;;;11.43;2.67;;;;;;;4.91;92.29;101126.31;5094530;28;20757;-80
2023/02/02 08:37:20;;;;;;;13.97;3.20;;;;;;;4.96;92.23;101131.47;5093252;28;20960;-81
2023/02/02 08:39:47;;;;;;;17.17;2.83;;;;;;;4.97;91.98;101133.19;5091422;28;20691;-80
2023/02/02 08:42:13;;;;;;;16.13;2.60;;;;;;;5.00;91.99;101133.09;5092588;28;20210;-81
2023/02/02 08:44:41;;;;;;;10.50;2.43;;;;;;;5.03;91.76;101140.88;5090836;28;20676;-81
2023/02/02 08:47:08;;;;;;;12.93;2.47;;;;;;;5.04;91.71;101142.63;5091537;28;20208;-80
2023/02/02 08:49:34;;;;;;;9.57;2.70;;;;;;;5.04;91.57;101143.47;5086957;28;20429;-80
2023/02/02 08:52:00;;;;;;;10.67;2.17;;;;;;;5.07;91.41;101151.31;5091564;28;20621;-81
2023/02/02 08:54:27;;;;;;;12.03;2.47;;;;;;;5.08;91.45;101146.88;5090680;28;20578;-80
2023/02/02 08:56:54;;;;;;;11.63;2.50;;;;;;;5.08;90.63;101149.53;5091734;28;20258;-81
2023/02/02 08:59:20;;;;;;;7.80;2.10;;;;;;;5.11;90.53;101152.94;5091833;28;20232;-81
2023/02/02 09:01:48;;;;;;;9.93;1.93;;;;;;;5.13;90.22;101159.03;5096907;28;20286;-81
2023/02/02 09:04:15;;;;;;;8.20;1.90;;;;;;;5.12;90.05;101156.44;5092351;28;20819;-81
2023/02/02 09:06:43;;;;;;;7.93;2.20;;;;;;;5.12;89.81;101165.22;5086379;28;20223;-81
2023/02/02 09:09:13;;;;;;;11.47;2.90;;;;;;;5.12;89.44;101167.00;5090399;28;20804;-80
2023/02/02 09:11:40;;;;;;;6.33;2.00;;;;;;;5.14;89.13;101159.91;5090751;28;20200;-81
2023/02/02 09:14:07;;;;;;;12.17;2.23;;;;;;;5.15;89.20;101165.13;5095945;28;20200;-80
2023/02/02 09:16:34;;;;;;;16.50;1.80;;;;;;;5.17;88.82;101180.94;5096692;28;20220;-80
2023/02/02 09:19:03;;;;;;;5.53;1.30;;;;;;;5.18;88.54;101174.72;5094287;28;20786;-82
2023/02/02 09:21:29;;;;;;;9.90;2.33;;;;;;;5.19;88.30;101179.09;5096627;28;20207;-81
2023/02/02 09:23:56;;;;;;;7.93;2.10;;;;;;;5.19;88.00;101185.25;5095977;28;20834;-81
2023/02/02 09:26:25;;;;;;;9.40;2.17;;;;;;;5.23;87.85;101192.13;5096522;28;20204;-81
2023/02/02 09:28:53;;;;;;;11.23;1.70;;;;;;;5.26;87.81;101191.16;5094234;28;20231;-81
2023/02/02 09:31:20;;;;;;;7.13;1.73;;;;;;;5.29;87.67;101196.34;5090337;28;20568;-81
2023/02/02 09:33:47;;;;;;;10.77;1.80;;;;;;;5.33;87.44;101194.50;5095710;28;20219;-80
2023/02/02 09:36:15;;;;;;;8.97;2.03;;;;;;;5.33;87.14;101199.78;5092808;28;20232;-80
2023/02/02 09:38:43;;;;;;;7.20;1.70;;;;;;;5.35;86.98;101201.44;5093264;28;20216;-81
2023/02/02 09:41:42;;;;;;;10.33;2.17;;;;;;;5.37;87.00;101210.19;5093254;28;20210;-81
2023/02/02 09:44:16;;;;;;;10.90;2.50;;;;;;;5.42;86.84;101215.28;5089367;28;20196;-81
2023/02/02 09:46:53;;;;;;;7.63;1.93;;;;;;;5.42;86.90;101212.66;5090604;28;20205;-81
2023/02/02 09:49:25;;;;;;;6.40;1.63;;;;;;;5.43;86.72;101209.09;5091220;28;20224;-81
2023/02/02 09:51:59;;;;;;;7.70;1.67;;;;;;;5.44;86.97;101222.25;5090816;28;20200;-81
2023/02/02 09:54:32;;;;;;;11.90;1.70;;;;;;;5.46;86.55;101220.44;5097856;28;20203;-81
2023/02/02 09:57:02;;;;;;;12.47;2.03;;;;;;;5.50;86.72;101230.00;5096053;28;20212;-81
2023/02/02 09:59:34;;;;;;;9.23;2.03;;;;;;;5.51;86.39;101231.72;5090719;28;20248;-80
2023/02/02 10:02:05;;;;;;;6.47;1.97;;;;;;;5.55;86.33;101235.13;5093743;28;20196;-81
2023/02/02 10:04:35;;;;;;;5.37;1.60;;;;;;;5.59;86.16;101237.59;5101876;28;20213;-81
2023/02/02 10:07:08;;;;;;;11.20;1.93;;;;;;;5.64;85.90;101245.38;5103164;28;20635;-81
2023/02/02 10:09:42;;;;;;;9.17;2.00;;;;;;;5.69;86.06;101247.88;5100538;28;20254;-81
2023/02/02 10:12:31;;;;;;;7.10;1.60;;;;;;;5.72;85.95;101242.50;5092486;28;20198;-80
2023/02/02 10:15:04;;;;;;;7.10;2.17;;;;;;;5.73;85.52;101245.06;5094853;28;20197;-81
2023/02/02 10:17:40;;;;;;;6.53;1.73;;;;;;;5.75;85.92;101250.28;5087949;28;20217;-81
2023/02/02 10:20:20;;;;;;;7.07;1.40;;;;;;;5.76;85.54;101249.38;5092944;28;20202;-80
2023/02/02 10:22:49;;;;;;;9.40;1.90;;;;;;;5.80;85.23;101253.66;5087667;28;20208;-81
2023/02/02 10:25:17;;;;;;;10.57;2.47;;;;;;;5.83;85.57;101254.41;5094847;28;20827;-80
2023/02/02 10:27:49;;;;;;;7.33;1.47;;;;;;;5.91;85.99;101264.78;5094245;28;20322;-80
2023/02/02 10:30:19;;;;;;;7.73;1.63;;;;;;;5.97;85.94;101274.25;5095425;28;20196;-81
2023/02/02 10:32:49;;;;;;;7.37;1.60;;;;;;;6.02;85.41;101257.31;5090276;28;20212;-80
2023/02/02 10:35:35;;;;;;;6.73;1.60;;;;;;;6.06;85.17;101263.38;5090764;28;20669;-80
2023/02/02 10:38:12;;;;;;;13.27;2.20;;;;;;;6.09;85.00;101263.28;5088507;28;20228;-80
2023/02/02 10:40:51;;;;;;;12.30;2.17;;;;;;;6.12;84.81;101263.13;5095438;28;20192;-81
2023/02/02 10:43:45;;;;;;;11.50;1.50;;;;;;;6.14;84.42;101267.47;5095373;28;20204;-81
2023/02/02 10:46:17;;;;;;;7.40;1.60;;;;;;;6.16;84.62;101278.84;5095095;28;20200;-80
2023/02/02 10:48:46;;;;;;;10.57;2.47;;;;;;;6.18;84.04;101274.38;5094515;28;20227;-81
2023/02/02 10:51:20;;;;;;;12.50;2.00;;;;;;;6.23;84.18;101282.16;5089885;28;20220;-80
2023/02/02 10:53:52;;;;;;;8.77;1.67;;;;;;;6.28;84.24;101286.34;5092911;28;20215;-81
2023/02/02 10:56:22;;;;;;;6.57;1.83;;;;;;;6.34;83.78;101282.63;5084134;28;20639;-81
2023/02/02 10:58:57;;;;;;;5.97;1.53;;;;;;;6.37;83.59;101276.38;5086162;28;20228;-81
2023/02/02 11:01:24;;;;;;;6.80;1.83;;;;;;;6.41;83.33;101275.34;5091591;28;20703;-81
2023/02/02 11:06:48;;;;;;;10.07;1.60;;;;;;;6.43;82.00;101278.81;5092343;28;20212;-81
2023/02/02 11:06:49;;;;;;;9.27;2.03;;;;;;;6.44;81.82;101283.19;5083260;28;20203;-80
2023/02/02 11:09:21;;;;;;;9.30;1.50;;;;;;;6.47;82.19;101283.91;5089116;28;20322;-81
2023/02/02 11:11:51;;;;;;;11.80;2.30;;;;;;;6.53;81.73;101301.34;5085531;28;20229;-81
2023/02/02 11:14:24;;;;;;;8.80;2.00;;;;;;;6.54;81.20;101314.53;5088922;28;20212;-81
2023/02/02 11:17:02;;;;;;;9.73;1.73;;;;;;;6.59;80.75;101312.59;5091353;28;20208;-80
2023/02/02 11:19:30;;;;;;;9.30;1.63;;;;;;;6.63;80.98;101313.31;5095603;28;20226;-80
2023/02/02 11:21:58;;;;;;;7.83;1.90;;;;;;;6.67;81.01;101307.00;5094674;28;20207;-80
2023/02/02 11:24:28;;;;;;;8.30;1.50;;;;;;;6.71;81.03;101310.41;5095717;28;20205;-80
2023/02/02 11:26:59;;;;;;;8.37;1.70;;;;;;;6.71;80.46;101308.63;5097041;28;20197;-81
2023/02/02 11:29:30;;;;;;;11.67;1.70;;;;;;;6.73;80.50;101304.13;5095068;28;20224;-80
2023/02/02 11:31:57;;;;;;;11.23;1.93;;;;;;;6.74;80.82;101313.81;5090726;28;20813;-80
2023/02/02 11:34:25;;;;;;;5.87;1.63;;;;;;;6.73;80.57;101320.03;5093969;28;20592;-80
2023/02/02 11:37:10;;;;;;;8.10;1.80;;;;;;;6.75;80.44;101317.31;5090945;28;20228;-81
2023/02/02 11:39:38;;;;;;;9.63;1.60;;;;;;;6.75;80.36;101318.19;5086084;28;20239;-80
2023/02/02 11:42:07;;;;;;;12.37;2.10;;;;;;;6.74;80.16;101321.75;5091222;28;20203;-81
2023/02/02 11:44:35;;;;;;;11.10;2.07;;;;;;;6.74;80.04;101321.75;5088782;28;20205;-81
2023/02/02 11:47:04;;;;;;;11.97;2.17;;;;;;;6.72;80.32;101328.03;5089714;28;20231;-82